createdAt,value
2019-03-19T00:04:27.831Z,101022.66
2019-03-19T00:09:32.967Z,101024.69
2019-03-19T00:14:38.269Z,101027.83
2019-03-19T00:19:43.280Z,101030.98
2019-03-19T00:24:48.323Z,101036.73
2019-03-19T00:29:53.391Z,101038.67
2019-03-19T00:34:58.430Z,101039.31
2019-03-19T00:40:07.112Z,101036.30
2019-03-19T00:45:13.865Z,101043.26
2019-03-19T00:50:19.075Z,101043.25
2019-03-19T00:55:24.181Z,101052.35
2019-03-19T01:00:29.291Z,101053.63
2019-03-19T01:05:34.695Z,101069.69
2019-03-19T01:10:39.972Z,101068.08
2019-03-19T01:15:45.132Z,101068.30
2019-03-19T01:20:50.487Z,101079.83
2019-03-19T01:25:56.043Z,101084.28
2019-03-19T01:31:01.380Z,101095.19
2019-03-19T01:36:06.534Z,101102.20
2019-03-19T01:41:11.551Z,101112.58
2019-03-19T01:46:16.643Z,101123.30
2019-03-19T01:51:21.815Z,101117.87
2019-03-19T01:56:26.984Z,101131.67
2019-03-19T02:01:32.125Z,101143.36
2019-03-19T02:06:37.731Z,101148.77
2019-03-19T02:11:42.880Z,101154.08
2019-03-19T02:16:48.202Z,101169.17
2019-03-19T02:21:53.240Z,101172.97
2019-03-19T02:26:58.390Z,101185.48
2019-03-19T02:32:03.534Z,101198.79
2019-03-19T02:37:08.564Z,101206.16
2019-03-19T02:42:13.655Z,101199.86
2019-03-19T02:47:18.750Z,101205.73
2019-03-19T02:52:23.874Z,101214.13
2019-03-19T02:57:29.004Z,101225.05
2019-03-19T03:02:34.063Z,101233.37
2019-03-19T03:07:40.093Z,101230.77
2019-03-19T03:12:45.744Z,101235.38
2019-03-19T03:17:51.069Z,101239.41
2019-03-19T03:22:56.261Z,101250.44
2019-03-19T03:28:01.340Z,101261.31
2019-03-19T03:33:06.519Z,101253.26
2019-03-19T03:38:11.614Z,101269.16
2019-03-19T03:43:16.727Z,101281.40
2019-03-19T03:48:21.876Z,101294.52
2019-03-19T03:53:26.935Z,101296.35
2019-03-19T03:58:32.138Z,101305.27
2019-03-19T04:03:37.153Z,101320.29
2019-03-19T04:08:42.400Z,101316.95
2019-03-19T04:13:47.477Z,101314.07
2019-03-19T04:18:52.925Z,101328.58
2019-03-19T04:23:58.165Z,101328.50
2019-03-19T04:29:03.500Z,101351.20
2019-03-19T04:34:08.565Z,101348.22
2019-03-19T04:39:13.663Z,101358.15
2019-03-19T04:44:18.717Z,101371.12
2019-03-19T04:49:23.790Z,101380.45
2019-03-19T04:54:29.272Z,101386.28
2019-03-19T04:59:34.444Z,101399.16
2019-03-19T05:04:39.619Z,101408.80
2019-03-19T05:09:44.712Z,101413.05
2019-03-19T05:14:49.803Z,101415.30
2019-03-19T05:19:55.159Z,101412.75
2019-03-19T05:25:00.300Z,101414.09
2019-03-19T05:30:18.645Z,101417.71
2019-03-19T05:35:23.697Z,101432.03
2019-03-19T05:40:28.955Z,101438.05
2019-03-19T05:45:34.421Z,101452.06
2019-03-19T05:50:39.596Z,101453.05
2019-03-19T05:55:44.678Z,101464.47
2019-03-19T06:00:49.910Z,101472.49
2019-03-19T06:05:55.096Z,101483.19
2019-03-19T06:11:00.148Z,101488.34
2019-03-19T06:16:05.352Z,101491.30
2019-03-19T06:21:10.857Z,101511.73
2019-03-19T06:26:15.978Z,101511.50
2019-03-19T06:31:21.101Z,101526.19
2019-03-19T06:36:26.267Z,101529.72
2019-03-19T06:41:31.419Z,101540.27
2019-03-19T06:46:36.764Z,101549.79
2019-03-19T06:51:41.849Z,101553.28
2019-03-19T06:56:46.906Z,101563.59
2019-03-19T07:01:52.193Z,101580.67
2019-03-19T07:06:57.345Z,101574.37
2019-03-19T07:12:02.558Z,101583.18
2019-03-19T07:17:07.895Z,101580.40
2019-03-19T07:22:13.112Z,101594.50
2019-03-19T07:27:18.183Z,101591.30
2019-03-19T07:32:23.207Z,101595.72
2019-03-19T07:37:28.294Z,101608.12
2019-03-19T07:42:33.324Z,101622.39
2019-03-19T07:47:38.429Z,101635.02
2019-03-19T07:52:43.644Z,101644.23
2019-03-19T07:57:48.838Z,101649.60
2019-03-19T08:02:53.880Z,101658.52
2019-03-19T08:07:58.956Z,101672.70
2019-03-19T08:13:05.162Z,101668.52
2019-03-19T08:18:10.367Z,101686.92
2019-03-19T08:23:15.454Z,101686.92
2019-03-19T08:28:20.529Z,101710.97
2019-03-19T08:33:25.754Z,101715.77
2019-03-19T08:38:30.877Z,101727.24
2019-03-19T08:43:35.905Z,101726.48
2019-03-19T08:48:41.005Z,101743.77
2019-03-19T08:53:46.028Z,101748.98
2019-03-19T08:58:51.329Z,101743.28
2019-03-19T09:03:56.452Z,101749.80
2019-03-19T09:09:01.742Z,101755.63
2019-03-19T09:14:08.365Z,101762.70
2019-03-19T09:19:13.440Z,101771.22
2019-03-19T09:24:18.469Z,101760.91
2019-03-19T09:29:25.394Z,101762.25
2019-03-19T09:34:30.373Z,101779.00
2019-03-19T09:39:35.609Z,101794.64
2019-03-19T09:44:40.768Z,101801.50
2019-03-19T09:49:45.807Z,101810.13
2019-03-19T09:54:50.883Z,101803.97
2019-03-19T09:59:55.915Z,101798.70
2019-03-19T10:05:01.031Z,101812.06
2019-03-19T10:10:09.241Z,101816.83
2019-03-19T10:15:15.521Z,101829.39
2019-03-19T10:20:25.667Z,101832.24
2019-03-19T10:25:30.765Z,101838.51
2019-03-19T10:30:35.992Z,101839.41
2019-03-19T10:35:41.142Z,101844.05
2019-03-19T10:40:46.228Z,101849.08
2019-03-19T10:45:51.372Z,101858.06
2019-03-19T10:50:56.451Z,101866.76
2019-03-19T10:56:01.874Z,101859.19
2019-03-19T11:01:07.088Z,101865.78
2019-03-19T11:06:12.305Z,101873.81
2019-03-19T11:11:17.319Z,101868.44
2019-03-19T11:16:22.610Z,101872.83
2019-03-19T11:21:27.743Z,101872.37
2019-03-19T11:26:32.882Z,101879.69
2019-03-19T11:31:37.989Z,101876.75
2019-03-19T11:36:43.297Z,101880.65
2019-03-19T11:41:48.485Z,101895.92
2019-03-19T11:46:53.758Z,101905.45
2019-03-19T11:51:58.878Z,101902.84
2019-03-19T11:57:04.184Z,101903.59
2019-03-19T12:02:09.458Z,101907.23
2019-03-19T12:07:14.823Z,101913.23
2019-03-19T12:12:21.047Z,101921.23
2019-03-19T12:17:26.125Z,101921.59
2019-03-19T12:22:31.316Z,101926.09
2019-03-19T12:27:36.412Z,101937.36
2019-03-19T12:32:41.591Z,101929.53
2019-03-19T12:37:46.814Z,101948.49
2019-03-19T12:42:51.819Z,101943.23
2019-03-19T12:47:57.284Z,101948.39
2019-03-19T12:53:02.502Z,101955.22
2019-03-19T12:58:07.611Z,101970.64
2019-03-19T13:03:13.126Z,101966.83
2019-03-19T13:08:20.315Z,101971.06
2019-03-19T13:13:24.995Z,101965.82
2019-03-19T13:18:31.178Z,101972.67
2019-03-19T13:23:36.296Z,102001.02
2019-03-19T13:28:43.290Z,101988.72
2019-03-19T13:33:48.100Z,102007.58
2019-03-19T13:38:53.123Z,102017.56
2019-03-19T13:43:58.159Z,102013.74
2019-03-19T13:49:03.428Z,102009.83
2019-03-19T13:54:08.573Z,102012.93
2019-03-19T13:59:13.736Z,102010.64
2019-03-19T14:04:21.051Z,102012.70
2019-03-19T14:09:25.688Z,102024.53
2019-03-19T14:14:30.880Z,102026.84
2019-03-19T14:19:36.209Z,102024.92
2019-03-19T14:24:41.353Z,102040.75
2019-03-19T14:29:46.404Z,102045.95
2019-03-19T14:34:51.451Z,102058.64
2019-03-19T14:39:56.518Z,102062.14
2019-03-19T14:45:01.550Z,102065.44
2019-03-19T14:50:15.287Z,102068.52
2019-03-19T14:55:20.386Z,102074.65
2019-03-19T15:00:25.676Z,102097.72
2019-03-19T15:05:30.750Z,102095.98
2019-03-19T15:10:35.919Z,102109.27
2019-03-19T15:15:41.050Z,102120.47
2019-03-19T15:20:46.565Z,102119.01
2019-03-19T15:25:51.803Z,102124.23
2019-03-19T15:30:56.914Z,102136.62
2019-03-19T15:36:03.167Z,102142.86
2019-03-19T15:41:08.251Z,102156.23
2019-03-19T15:46:13.334Z,102165.41
2019-03-19T15:51:18.381Z,102183.80
2019-03-19T15:56:23.613Z,102198.63
2019-03-19T16:01:28.842Z,102212.55
2019-03-19T16:06:34.162Z,102214.11
2019-03-19T16:11:39.613Z,102221.86
2019-03-19T16:16:44.870Z,102229.78
2019-03-19T16:21:50.345Z,102238.33
2019-03-19T16:26:57.064Z,102239.36
2019-03-19T16:32:02.288Z,102250.58
2019-03-19T16:37:07.420Z,102261.17
2019-03-19T16:42:12.547Z,102276.16
2019-03-19T16:47:17.599Z,102286.73
2019-03-19T16:52:22.654Z,102303.85
2019-03-19T16:57:27.696Z,102312.52
2019-03-19T17:02:32.834Z,102324.56
2019-03-19T17:07:37.949Z,102326.92
2019-03-19T17:12:43.135Z,102345.97
2019-03-19T17:17:48.391Z,102345.97
2019-03-19T17:22:53.738Z,102358.92
2019-03-19T17:27:58.975Z,102371.03
2019-03-19T17:33:04.847Z,102368.41
2019-03-19T17:38:10.104Z,102374.44
2019-03-19T17:43:15.477Z,102397.50
2019-03-19T17:48:20.688Z,102390.14
2019-03-19T17:53:25.765Z,102390.20
2019-03-19T17:58:30.964Z,102400.89
2019-03-19T18:03:36.049Z,102407.95
2019-03-19T18:08:41.117Z,102408.03
2019-03-19T18:13:46.478Z,102427.63
2019-03-19T18:18:51.633Z,102428.43
2019-03-19T18:23:56.837Z,102435.03
2019-03-19T18:29:02.326Z,102441.97
2019-03-19T18:34:10.469Z,102456.80
2019-03-19T18:39:16.795Z,102463.20
2019-03-19T18:44:22.012Z,102472.20
2019-03-19T18:49:27.066Z,102472.20
2019-03-19T18:54:32.320Z,102489.33
2019-03-19T18:59:37.426Z,102492.73
2019-03-19T19:04:42.649Z,102479.52
2019-03-19T19:09:47.722Z,102488.93
2019-03-19T19:14:52.840Z,102495.82
2019-03-19T19:19:57.885Z,102502.32
2019-03-19T19:25:03.095Z,102507.80
2019-03-19T19:30:16.881Z,102510.14
2019-03-19T19:35:22.065Z,102517.13
2019-03-19T19:40:27.214Z,102507.34
2019-03-19T19:45:32.434Z,102510.34
2019-03-19T19:50:37.573Z,102514.99
2019-03-19T19:55:42.788Z,102520.41
2019-03-19T20:00:48.014Z,102511.04
2019-03-19T20:05:53.220Z,102512.44
2019-03-19T20:10:58.387Z,102529.84
2019-03-19T20:16:03.604Z,102524.84
2019-03-19T20:21:08.743Z,102530.48
2019-03-19T20:26:13.890Z,102526.36
2019-03-19T20:31:19.303Z,102540.52
2019-03-19T20:36:24.581Z,102540.41
2019-03-19T20:41:30.846Z,102543.13
2019-03-19T20:46:36.137Z,102549.95
2019-03-19T20:51:41.394Z,102554.62
2019-03-19T20:56:46.909Z,102559.61
2019-03-19T21:01:52.077Z,102558.09
2019-03-19T21:06:57.127Z,102554.09
2019-03-19T21:12:02.451Z,102558.59
2019-03-19T21:17:07.677Z,102553.59
2019-03-19T21:22:13.013Z,102563.88
2019-03-19T21:27:18.553Z,102569.17
2019-03-19T21:32:23.816Z,102582.81
2019-03-19T21:37:29.251Z,102578.56
2019-03-19T21:42:34.714Z,102578.95
2019-03-19T21:47:39.987Z,102598.86
2019-03-19T21:52:45.525Z,102595.03
2019-03-19T21:57:50.771Z,102597.22
2019-03-19T22:02:56.961Z,102601.31
2019-03-19T22:08:02.183Z,102603.14
2019-03-19T22:13:07.471Z,102600.17
2019-03-19T22:18:12.745Z,102612.36
2019-03-19T22:23:17.970Z,102610.53
2019-03-19T22:28:23.164Z,102607.05
2019-03-19T22:33:28.218Z,102604.51
2019-03-19T22:38:33.315Z,102597.80
2019-03-19T22:43:38.518Z,102614.70
2019-03-19T22:48:43.696Z,102611.64
2019-03-19T22:53:48.824Z,102611.35
2019-03-19T22:58:53.913Z,102610.53
2019-03-19T23:03:59.047Z,102613.52
2019-03-19T23:09:06.548Z,102612.52
2019-03-19T23:14:12.049Z,102611.35
2019-03-19T23:19:17.361Z,102614.30
2019-03-19T23:24:22.399Z,102609.41
2019-03-19T23:29:27.671Z,102614.67
2019-03-19T23:34:38.589Z,102614.05
2019-03-19T23:39:39.713Z,102624.22
2019-03-19T23:44:45.017Z,102631.93
2019-03-19T23:49:50.173Z,102626.78
2019-03-19T23:54:55.345Z,102631.55
